createdAt,value
2018-12-07T00:00:02.953Z,1011.45
2018-12-07T00:01:02.982Z,1011.46
2018-12-07T00:02:02.957Z,1011.40
2018-12-07T00:03:02.917Z,1011.39
2018-12-07T00:04:02.900Z,1011.35
2018-12-07T00:05:02.892Z,1011.42
2018-12-07T00:06:02.888Z,1011.41
2018-12-07T00:07:02.973Z,1011.38
2018-12-07T00:08:02.861Z,1011.35
2018-12-07T00:09:02.858Z,1011.38
2018-12-07T00:10:02.842Z,1011.40
2018-12-07T00:11:02.829Z,1011.38
2018-12-07T00:12:02.838Z,1011.32
2018-12-07T00:13:02.827Z,1011.29
2018-12-07T00:14:02.805Z,1011.35
2018-12-07T00:15:02.800Z,1011.30
2018-12-07T00:16:02.781Z,1011.30
2018-12-07T00:17:02.791Z,1011.32
2018-12-07T00:18:02.757Z,1011.20
2018-12-07T00:19:02.762Z,1011.28
2018-12-07T00:20:02.728Z,1011.30
2018-12-07T00:21:02.716Z,1011.31
2018-12-07T00:22:02.749Z,1011.24
2018-12-07T00:23:02.720Z,1011.24
2018-12-07T00:24:02.685Z,1011.23
2018-12-07T00:25:02.678Z,1011.22
2018-12-07T00:26:02.675Z,1011.24
2018-12-07T00:27:02.695Z,1011.21
2018-12-07T00:28:02.661Z,1011.20
2018-12-07T00:29:02.627Z,1011.13
2018-12-07T00:30:02.623Z,1011.12
2018-12-07T00:31:02.621Z,1011.18
2018-12-07T00:32:02.639Z,1011.15
2018-12-07T00:33:02.608Z,1011.19
2018-12-07T00:34:02.587Z,1011.15
2018-12-07T00:35:02.571Z,1011.19
2018-12-07T00:36:02.559Z,1011.15
2018-12-07T00:37:02.556Z,1011.11
2018-12-07T00:38:02.561Z,1011.17
2018-12-07T00:39:02.556Z,1011.12
2018-12-07T00:40:02.505Z,1011.10
2018-12-07T00:41:02.496Z,1011.09
2018-12-07T00:42:02.498Z,1011.09
2018-12-07T00:43:02.566Z,1011.04
2018-12-07T00:44:02.471Z,1011.06
2018-12-07T00:45:02.482Z,1011.10
2018-12-07T00:46:02.469Z,1011.02
2018-12-07T00:47:02.441Z,1011.03
2018-12-07T00:48:02.422Z,1011.03
2018-12-07T00:49:02.438Z,1011.03
2018-12-07T00:50:02.407Z,1011.05
2018-12-07T00:51:02.400Z,1010.98
2018-12-07T00:52:02.406Z,1011.04
2018-12-07T00:53:02.370Z,1011.03
2018-12-07T00:54:02.386Z,1011.01
2018-12-07T00:55:02.355Z,1011.00
2018-12-07T00:56:02.344Z,1011.01
2018-12-07T00:57:02.319Z,1010.99
2018-12-07T00:58:02.378Z,1010.97
2018-12-07T00:59:02.332Z,1010.93
2018-12-07T01:00:02.296Z,1010.94
2018-12-07T01:01:02.295Z,1010.97
2018-12-07T01:02:02.273Z,1010.97
2018-12-07T01:03:02.283Z,1010.88
2018-12-07T01:04:02.290Z,1010.90
2018-12-07T01:05:02.261Z,1010.87
2018-12-07T01:06:02.235Z,1010.82
2018-12-07T01:07:02.290Z,1010.85
2018-12-07T01:08:02.214Z,1010.85
2018-12-07T01:09:02.202Z,1010.80
2018-12-07T01:10:02.226Z,1010.82
2018-12-07T01:11:02.168Z,1010.78
2018-12-07T01:12:02.167Z,1010.81
2018-12-07T01:13:02.151Z,1010.73
2018-12-07T01:14:02.187Z,1010.78
2018-12-07T01:15:02.167Z,1010.77
2018-12-07T01:16:02.113Z,1010.77
2018-12-07T01:17:02.118Z,1010.74
2018-12-07T01:18:02.098Z,1010.73
2018-12-07T01:19:02.136Z,1010.70
2018-12-07T01:20:02.067Z,1010.69
2018-12-07T01:21:02.058Z,1010.73
2018-12-07T01:22:02.047Z,1010.67
2018-12-07T01:23:02.060Z,1010.59
2018-12-07T01:24:02.049Z,1010.57
2018-12-07T01:25:02.048Z,1010.58
2018-12-07T01:26:02.004Z,1010.60
2018-12-07T01:27:02.011Z,1010.60
2018-12-07T01:28:01.981Z,1010.57
2018-12-07T01:29:02.010Z,1010.48
2018-12-07T01:30:02.008Z,1010.49
2018-12-07T01:31:01.959Z,1010.50
2018-12-07T01:32:01.939Z,1010.55
2018-12-07T01:33:01.930Z,1010.47
2018-12-07T01:34:01.912Z,1010.53
2018-12-07T01:35:01.961Z,1010.52
2018-12-07T01:36:01.913Z,1010.45
2018-12-07T01:37:01.895Z,1010.43
2018-12-07T01:38:01.868Z,1010.48
2018-12-07T01:39:01.859Z,1010.47
2018-12-07T01:40:01.877Z,1010.47
2018-12-07T01:41:01.844Z,1010.41
2018-12-07T01:42:01.851Z,1010.43
2018-12-07T01:43:01.823Z,1010.43
2018-12-07T01:44:01.810Z,1010.46
2018-12-07T01:45:01.831Z,1010.40
2018-12-07T01:46:01.784Z,1010.42
2018-12-07T01:47:01.774Z,1010.41
2018-12-07T01:48:01.765Z,1010.34
2018-12-07T01:49:01.750Z,1010.37
2018-12-07T01:50:01.751Z,1010.34
2018-12-07T01:51:01.752Z,1010.34
2018-12-07T01:52:01.718Z,1010.35
2018-12-07T01:53:01.720Z,1010.38
2018-12-07T01:54:01.696Z,1010.37
2018-12-07T01:55:01.683Z,1010.37
2018-12-07T01:56:01.718Z,1010.29
2018-12-07T01:57:01.667Z,1010.26
2018-12-07T01:58:01.652Z,1010.28
2018-12-07T01:59:01.646Z,1010.30
2018-12-07T02:00:01.636Z,1010.30
2018-12-07T02:01:01.657Z,1010.30
2018-12-07T02:02:01.651Z,1010.28
2018-12-07T02:03:01.602Z,1010.31
2018-12-07T02:04:01.603Z,1010.31
2018-12-07T02:05:01.593Z,1010.27
2018-12-07T02:06:01.678Z,1010.27
2018-12-07T02:07:01.552Z,1010.27
2018-12-07T02:08:01.582Z,1010.26
2018-12-07T02:09:01.534Z,1010.27
2018-12-07T02:10:01.519Z,1010.26
2018-12-07T02:11:01.514Z,1010.19
2018-12-07T02:12:01.533Z,1010.24
2018-12-07T02:13:01.490Z,1010.19
2018-12-07T02:14:01.490Z,1010.23
2018-12-07T02:15:01.474Z,1010.20
2018-12-07T02:16:01.487Z,1010.20
2018-12-07T02:17:01.476Z,1010.17
2018-12-07T02:18:01.434Z,1010.16
2018-12-07T02:19:01.427Z,1010.11
2018-12-07T02:20:01.420Z,1010.14
2018-12-07T02:21:01.404Z,1010.13
2018-12-07T02:22:01.419Z,1010.12
2018-12-07T02:23:01.379Z,1010.10
2018-12-07T02:24:01.395Z,1010.13
2018-12-07T02:25:01.360Z,1010.05
2018-12-07T02:26:01.362Z,1010.04
2018-12-07T02:27:01.366Z,1010.08
2018-12-07T02:28:01.354Z,1010.00
2018-12-07T02:29:01.309Z,1010.01
2018-12-07T02:30:01.306Z,1009.89
2018-12-07T02:31:01.301Z,1009.90
2018-12-07T02:32:01.300Z,1009.92
2018-12-07T02:33:01.293Z,1009.88
2018-12-07T02:34:01.259Z,1009.86
2018-12-07T02:35:01.247Z,1009.86
2018-12-07T02:36:01.248Z,1009.84
2018-12-07T02:37:01.224Z,1009.85
2018-12-07T02:38:01.260Z,1009.80
2018-12-07T02:39:01.200Z,1009.82
2018-12-07T02:40:01.224Z,1009.79
2018-12-07T02:41:01.176Z,1009.75
2018-12-07T02:42:01.173Z,1009.76
2018-12-07T02:43:01.182Z,1009.74
2018-12-07T02:44:01.155Z,1009.68
2018-12-07T02:45:01.134Z,1009.72
2018-12-07T02:46:01.125Z,1009.65
2018-12-07T02:47:01.116Z,1009.67
2018-12-07T02:48:01.144Z,1009.59
2018-12-07T02:49:01.107Z,1009.62
2018-12-07T02:50:01.085Z,1009.66
2018-12-07T02:51:01.093Z,1009.62
2018-12-07T02:52:01.054Z,1009.58
2018-12-07T02:53:01.071Z,1009.60
2018-12-07T02:54:01.042Z,1009.58
2018-12-07T02:55:01.031Z,1009.47
2018-12-07T02:56:01.023Z,1009.58
2018-12-07T02:57:01.003Z,1009.60
2018-12-07T02:58:01.019Z,1009.59
2018-12-07T02:59:00.980Z,1009.57
2018-12-07T03:00:00.967Z,1009.57
2018-12-07T03:01:00.979Z,1009.55
2018-12-07T03:02:00.960Z,1009.50
2018-12-07T03:03:00.934Z,1009.53
2018-12-07T03:04:00.945Z,1009.47
2018-12-07T03:05:00.914Z,1009.52
2018-12-07T03:06:00.907Z,1009.47
2018-12-07T03:07:00.893Z,1009.45
2018-12-07T03:08:00.895Z,1009.46
2018-12-07T03:09:00.899Z,1009.45
2018-12-07T03:10:00.871Z,1009.48
2018-12-07T03:11:00.853Z,1009.45
2018-12-07T03:12:00.838Z,1009.46
2018-12-07T03:13:00.824Z,1009.47
2018-12-07T03:14:00.845Z,1009.47
2018-12-07T03:15:00.811Z,1009.38
2018-12-07T03:16:00.793Z,1009.42
2018-12-07T03:17:00.789Z,1009.37
2018-12-07T03:18:00.768Z,1009.34
2018-12-07T03:19:00.790Z,1009.41
2018-12-07T03:20:00.746Z,1009.32
2018-12-07T03:21:00.737Z,1009.26
2018-12-07T03:22:00.725Z,1009.30
2018-12-07T03:23:00.729Z,1009.25
2018-12-07T03:24:00.768Z,1009.23
2018-12-07T03:25:00.691Z,1009.21
2018-12-07T03:26:00.696Z,1009.20
2018-12-07T03:27:00.679Z,1009.21
2018-12-07T03:28:00.661Z,1009.18
2018-12-07T03:29:00.699Z,1009.20
2018-12-07T03:30:00.636Z,1009.16
2018-12-07T03:31:00.629Z,1009.17
2018-12-07T03:32:00.620Z,1009.12
2018-12-07T03:33:00.617Z,1009.12
2018-12-07T03:34:02.353Z,1009.15
2018-12-07T03:35:00.619Z,1009.09
2018-12-07T03:36:00.592Z,1009.06
2018-12-07T03:37:00.562Z,1009.08
2018-12-07T03:38:00.547Z,1009.06
2018-12-07T03:39:00.536Z,1009.05
2018-12-07T03:40:00.561Z,1009.00
2018-12-07T03:41:00.608Z,1009.05
2018-12-07T03:42:00.506Z,1008.95
2018-12-07T03:43:00.497Z,1008.94
2018-12-07T03:44:00.484Z,1008.99
2018-12-07T03:45:00.501Z,1008.91
2018-12-07T03:46:00.458Z,1008.92
2018-12-07T03:47:00.508Z,1008.90
2018-12-07T03:48:00.441Z,1008.86
2018-12-07T03:49:00.423Z,1008.85
2018-12-07T03:50:00.454Z,1008.84
2018-12-07T03:51:00.417Z,1008.83
2018-12-07T03:52:00.394Z,1008.79
2018-12-07T03:53:00.382Z,1008.82
2018-12-07T03:54:00.376Z,1008.80
2018-12-07T03:55:00.408Z,1008.77
2018-12-07T03:56:00.378Z,1008.74
2018-12-07T03:57:00.339Z,1008.74
2018-12-07T03:58:00.326Z,1008.75
2018-12-07T03:59:00.327Z,1008.71
2018-12-07T04:00:00.344Z,1008.75
2018-12-07T04:01:00.324Z,1008.76
2018-12-07T04:02:00.281Z,1008.67
2018-12-07T04:03:00.282Z,1008.70
2018-12-07T04:04:00.262Z,1008.74
2018-12-07T04:05:00.254Z,1008.71
2018-12-07T04:06:00.289Z,1008.62
2018-12-07T04:07:00.238Z,1008.65
2018-12-07T04:08:00.221Z,1008.68
2018-12-07T04:09:00.208Z,1008.58
2018-12-07T04:10:00.201Z,1008.59
2018-12-07T04:11:00.223Z,1008.59
2018-12-07T04:12:00.187Z,1008.68
2018-12-07T04:13:00.176Z,1008.59
2018-12-07T04:14:00.165Z,1008.58
2018-12-07T04:15:00.159Z,1008.58
2018-12-07T04:16:00.161Z,1008.56
2018-12-07T04:17:00.136Z,1008.57
2018-12-07T04:18:00.135Z,1008.55
2018-12-07T04:19:00.101Z,1008.57
2018-12-07T04:20:00.126Z,1008.58
2018-12-07T04:21:00.114Z,1008.57
2018-12-07T04:22:00.068Z,1008.55
2018-12-07T04:23:00.066Z,1008.57
2018-12-07T04:24:00.042Z,1008.53
2018-12-07T04:25:00.039Z,1008.45
2018-12-07T04:26:00.080Z,1008.45
2018-12-07T04:27:00.038Z,1008.47
2018-12-07T04:28:00.000Z,1008.48
2018-12-07T04:28:59.989Z,1008.44
2018-12-07T04:29:59.983Z,1008.38
2018-12-07T04:31:00.001Z,1008.39
2018-12-07T04:32:00.086Z,1008.41
2018-12-07T04:32:59.959Z,1008.38
2018-12-07T04:33:59.945Z,1008.38
2018-12-07T04:34:59.939Z,1008.40
2018-12-07T04:36:07.175Z,1008.37
2018-12-07T04:37:00.974Z,1008.32
2018-12-07T04:37:59.899Z,1008.32
2018-12-07T04:38:59.906Z,1008.29
2018-12-07T04:39:59.869Z,1008.28
2018-12-07T04:40:59.857Z,1008.28
2018-12-07T04:41:59.881Z,1008.23
2018-12-07T04:42:59.851Z,1008.22
2018-12-07T04:43:59.832Z,1008.25
2018-12-07T04:44:59.833Z,1008.25
2018-12-07T04:45:59.809Z,1008.28
2018-12-07T04:46:59.841Z,1008.21
2018-12-07T04:47:59.785Z,1008.21
2018-12-07T04:48:59.775Z,1008.17
2018-12-07T04:49:59.771Z,1008.18
2018-12-07T04:50:59.749Z,1008.24
2018-12-07T04:51:59.738Z,1008.15
2018-12-07T04:52:59.765Z,1008.18
2018-12-07T04:53:59.719Z,1008.17
2018-12-07T04:54:59.704Z,1008.10
2018-12-07T04:55:59.727Z,1008.12
2018-12-07T04:56:59.689Z,1008.06
2018-12-07T04:57:59.711Z,1008.11
2018-12-07T04:58:59.659Z,1008.08
2018-12-07T04:59:59.653Z,1008.07
2018-12-07T05:00:59.643Z,1008.00
2018-12-07T05:01:59.631Z,1008.08
2018-12-07T05:02:59.666Z,1008.04
2018-12-07T05:03:59.635Z,1008.06
2018-12-07T05:04:59.593Z,1008.00
2018-12-07T05:05:59.604Z,1007.99
2018-12-07T05:06:59.575Z,1008.04
2018-12-07T05:07:59.603Z,1008.00
2018-12-07T05:08:59.608Z,1007.96
2018-12-07T05:09:59.547Z,1008.01
2018-12-07T05:10:59.537Z,1007.95
2018-12-07T05:11:59.523Z,1007.96
2018-12-07T05:12:59.538Z,1007.95
2018-12-07T05:13:59.524Z,1007.90
2018-12-07T05:14:59.526Z,1007.89
2018-12-07T05:15:59.474Z,1007.86
2018-12-07T05:16:59.466Z,1007.94
2018-12-07T05:17:59.452Z,1007.89
2018-12-07T05:18:59.472Z,1007.89
2018-12-07T05:20:00.081Z,1007.88
2018-12-07T05:20:59.433Z,1007.91
2018-12-07T05:21:59.411Z,1007.81
2018-12-07T05:22:59.399Z,1007.78
2018-12-07T05:23:59.385Z,1007.79
2018-12-07T05:24:59.422Z,1007.78
2018-12-07T05:27:00.488Z,1007.73
2018-12-07T05:27:59.380Z,1007.71
2018-12-07T05:28:59.378Z,1007.70
2018-12-07T05:29:59.325Z,1007.64
2018-12-07T05:30:59.312Z,1007.62
2018-12-07T05:31:59.296Z,1007.69
2018-12-07T05:32:59.299Z,1007.65
2018-12-07T05:33:59.278Z,1007.61
2018-12-07T05:34:59.300Z,1007.62
2018-12-07T05:35:59.286Z,1007.61
2018-12-07T05:36:59.244Z,1007.57
2018-12-07T05:37:59.238Z,1007.56
2018-12-07T05:38:59.230Z,1007.53
2018-12-07T05:39:59.233Z,1007.58
2018-12-07T05:40:59.203Z,1007.58
2018-12-07T05:41:59.233Z,1007.48
2018-12-07T05:42:59.177Z,1007.52
2018-12-07T05:43:59.168Z,1007.46
2018-12-07T05:44:59.193Z,1007.45
2018-12-07T05:45:59.150Z,1007.43
2018-12-07T05:46:59.141Z,1007.44
2018-12-07T05:47:59.149Z,1007.36
2018-12-07T05:48:59.108Z,1007.36
2018-12-07T05:49:59.134Z,1007.38
2018-12-07T05:50:59.107Z,1007.42
2018-12-07T05:51:59.250Z,1007.41
2018-12-07T05:52:59.073Z,1007.39
2018-12-07T05:53:59.057Z,1007.34
2018-12-07T05:54:59.075Z,1007.31
2018-12-07T05:55:59.053Z,1007.34
2018-12-07T05:56:59.078Z,1007.31
2018-12-07T05:57:59.027Z,1007.24
2018-12-07T05:58:59.003Z,1007.22
2018-12-07T05:59:59.042Z,1007.20
2018-12-07T06:00:59.010Z,1007.19
2018-12-07T06:01:58.989Z,1007.18
2018-12-07T06:02:58.959Z,1007.11
2018-12-07T06:03:58.954Z,1007.16
2018-12-07T06:04:58.955Z,1007.11
2018-12-07T06:05:58.957Z,1007.12
2018-12-07T06:06:58.911Z,1007.13
2018-12-07T06:07:58.906Z,1007.14
2018-12-07T06:08:58.895Z,1007.10
2018-12-07T06:09:58.883Z,1007.09
2018-12-07T06:10:58.911Z,1007.13
2018-12-07T06:11:58.858Z,1007.16
2018-12-07T06:12:58.848Z,1007.02
2018-12-07T06:13:58.836Z,1007.12
2018-12-07T06:14:58.824Z,1007.09
2018-12-07T06:15:58.855Z,1007.04
2018-12-07T06:16:58.840Z,1007.02
2018-12-07T06:17:58.797Z,1007.01
2018-12-07T06:18:58.781Z,1006.98
2018-12-07T06:19:58.772Z,1007.07
2018-12-07T06:20:58.788Z,1007.02
2018-12-07T06:21:58.756Z,1007.00
2018-12-07T06:22:58.737Z,1006.99
2018-12-07T06:23:58.755Z,1006.99
2018-12-07T06:24:58.726Z,1006.94
2018-12-07T06:25:58.716Z,1006.94
2018-12-07T06:26:58.736Z,1006.93
2018-12-07T06:27:58.686Z,1006.92
2018-12-07T06:28:58.669Z,1006.98
2018-12-07T06:29:58.661Z,1006.91
2018-12-07T06:30:58.738Z,1006.88
2018-12-07T06:32:59.803Z,1006.89
2018-12-07T06:33:58.622Z,1006.84
2018-12-07T06:34:58.600Z,1006.86
2018-12-07T06:35:58.589Z,1006.82
2018-12-07T06:36:58.616Z,1006.85
2018-12-07T06:37:58.577Z,1006.80
2018-12-07T06:38:58.580Z,1006.79
2018-12-07T06:39:58.580Z,1006.76
2018-12-07T06:40:58.535Z,1006.79
2018-12-07T06:41:58.525Z,1006.83
2018-12-07T06:42:58.541Z,1006.80
2018-12-07T06:43:58.508Z,1006.77
2018-12-07T06:44:58.534Z,1006.77
2018-12-07T06:45:58.489Z,1006.72
2018-12-07T06:46:58.466Z,1006.71
2018-12-07T06:47:58.496Z,1006.78
2018-12-07T06:48:58.445Z,1006.78
2018-12-07T06:49:58.436Z,1006.71
2018-12-07T06:50:58.434Z,1006.73
2018-12-07T06:51:58.410Z,1006.73
2018-12-07T06:52:58.440Z,1006.75
2018-12-07T06:53:58.390Z,1006.67
2018-12-07T06:54:58.375Z,1006.70
2018-12-07T06:55:58.384Z,1006.66
2018-12-07T06:56:58.408Z,1006.60
2018-12-07T06:57:58.408Z,1006.59
2018-12-07T06:58:58.332Z,1006.62
2018-12-07T06:59:58.472Z,1006.58
2018-12-07T07:00:58.321Z,1006.55
2018-12-07T07:01:58.301Z,1006.56
2018-12-07T07:02:58.338Z,1006.46
2018-12-07T07:03:58.275Z,1006.47
2018-12-07T07:04:58.264Z,1006.45
2018-12-07T07:05:58.273Z,1006.46
2018-12-07T07:06:58.276Z,1006.39
2018-12-07T07:07:58.236Z,1006.42
2018-12-07T07:08:58.244Z,1006.36
2018-12-07T07:09:58.209Z,1006.39
2018-12-07T07:10:58.202Z,1006.35
2018-12-07T07:11:58.188Z,1006.37
2018-12-07T07:12:58.219Z,1006.40
2018-12-07T07:13:58.191Z,1006.42
2018-12-07T07:14:58.155Z,1006.40
2018-12-07T07:15:58.142Z,1006.38
2018-12-07T07:16:58.147Z,1006.34
2018-12-07T07:17:58.130Z,1006.43
2018-12-07T07:18:58.155Z,1006.34
2018-12-07T07:19:58.102Z,1006.31
2018-12-07T07:20:58.086Z,1006.31
2018-12-07T07:21:58.126Z,1006.29
2018-12-07T07:22:58.065Z,1006.28
2018-12-07T07:23:58.087Z,1006.26
2018-12-07T07:24:58.072Z,1006.23
2018-12-07T07:25:58.041Z,1006.26
2018-12-07T07:26:58.021Z,1006.27
2018-12-07T07:27:58.050Z,1006.23
2018-12-07T07:28:57.996Z,1006.22
2018-12-07T07:29:57.986Z,1006.31
2018-12-07T07:30:57.996Z,1006.22
2018-12-07T07:31:57.971Z,1006.27
2018-12-07T07:32:57.950Z,1006.22
2018-12-07T07:33:57.973Z,1006.21
2018-12-07T07:34:57.953Z,1006.12
2018-12-07T07:35:57.923Z,1006.20
2018-12-07T07:36:57.933Z,1006.17
2018-12-07T07:37:57.904Z,1006.17
2018-12-07T07:38:57.905Z,1006.12
2018-12-07T07:39:57.902Z,1006.15
2018-12-07T07:40:57.901Z,1006.12
2018-12-07T07:41:57.878Z,1006.12
2018-12-07T07:42:57.837Z,1006.11
2018-12-07T07:43:57.852Z,1006.10
2018-12-07T07:44:57.827Z,1006.13
2018-12-07T07:45:57.841Z,1006.14
2018-12-07T07:46:57.797Z,1006.03
2018-12-07T07:47:57.782Z,1006.06
2018-12-07T07:48:59.427Z,1006.07
2018-12-07T07:49:57.814Z,1006.13
2018-12-07T07:50:57.781Z,1006.09
2018-12-07T07:51:57.741Z,1006.02
2018-12-07T07:52:57.726Z,1005.99
2018-12-07T07:53:57.716Z,1005.93
2018-12-07T07:54:57.721Z,1006.04
2018-12-07T07:55:57.721Z,1005.89
2018-12-07T07:56:57.733Z,1005.95
2018-12-07T07:57:57.674Z,1005.96
2018-12-07T07:58:57.668Z,1005.95
2018-12-07T07:59:57.647Z,1005.88
2018-12-07T08:00:57.710Z,1005.93
2018-12-07T08:01:57.637Z,1005.87
2018-12-07T08:03:00.003Z,1005.86
2018-12-07T08:03:57.606Z,1005.90
2018-12-07T08:04:57.604Z,1005.88
2018-12-07T08:05:57.608Z,1005.85
2018-12-07T08:06:57.603Z,1005.82
2018-12-07T08:07:57.579Z,1005.88
2018-12-07T08:08:57.558Z,1005.85
2018-12-07T08:09:57.540Z,1005.84
2018-12-07T08:10:57.557Z,1005.84
2018-12-07T08:11:57.517Z,1005.86
2018-12-07T08:12:58.814Z,1005.82
2018-12-07T08:13:57.492Z,1005.85
2018-12-07T08:14:57.502Z,1005.75
2018-12-07T08:15:57.514Z,1005.66
2018-12-07T08:16:57.494Z,1005.69
2018-12-07T08:17:57.555Z,1005.70
2018-12-07T08:18:57.440Z,1005.64
2018-12-07T08:19:57.481Z,1005.69
2018-12-07T08:20:57.415Z,1005.65
2018-12-07T08:21:57.427Z,1005.64
2018-12-07T08:22:57.399Z,1005.57
2018-12-07T08:23:57.379Z,1005.57
2018-12-07T08:24:57.393Z,1005.56
2018-12-07T08:25:57.497Z,1005.56
2018-12-07T08:26:57.394Z,1005.53
2018-12-07T08:27:57.379Z,1005.55
2018-12-07T08:28:57.330Z,1005.56
2018-12-07T08:29:57.358Z,1005.47
2018-12-07T08:30:57.302Z,1005.47
2018-12-07T08:31:57.294Z,1005.47
2018-12-07T08:32:57.300Z,1005.43
2018-12-07T08:33:57.266Z,1005.45
2018-12-07T08:34:57.270Z,1005.37
2018-12-07T08:35:57.291Z,1005.46
2018-12-07T08:36:57.271Z,1005.39
2018-12-07T08:37:57.262Z,1005.40
2018-12-07T08:38:57.211Z,1005.32
2018-12-07T08:39:57.200Z,1005.36
2018-12-07T08:40:57.204Z,1005.39
2018-12-07T08:41:57.219Z,1005.35
2018-12-07T08:42:57.198Z,1005.33
2018-12-07T08:43:57.156Z,1005.27
2018-12-07T08:44:57.145Z,1005.25
2018-12-07T08:45:57.132Z,1005.26
2018-12-07T08:46:57.135Z,1005.25
2018-12-07T08:47:57.171Z,1005.22
2018-12-07T08:48:57.114Z,1005.27
2018-12-07T08:49:57.090Z,1005.25
2018-12-07T08:50:57.093Z,1005.23
2018-12-07T08:51:57.069Z,1005.18
2018-12-07T08:52:57.111Z,1005.21
2018-12-07T08:53:57.073Z,1005.17
2018-12-07T08:54:57.091Z,1005.15
2018-12-07T08:55:57.026Z,1005.09
2018-12-07T08:56:57.016Z,1005.10
2018-12-07T08:57:57.005Z,1005.15
2018-12-07T08:58:57.024Z,1005.08
2018-12-07T08:59:56.978Z,1005.07
2018-12-07T09:00:56.987Z,1005.01
2018-12-07T09:01:56.955Z,1005.05
2018-12-07T09:02:56.949Z,1005.08
2018-12-07T09:03:57.138Z,1005.04
2018-12-07T09:04:56.929Z,1005.11
2018-12-07T09:05:56.915Z,1005.11
2018-12-07T09:06:56.911Z,1005.08
2018-12-07T09:07:56.892Z,1005.09
2018-12-07T09:08:56.911Z,1005.10
2018-12-07T09:09:56.877Z,1005.04
2018-12-07T09:10:56.860Z,1005.10
2018-12-07T09:12:57.970Z,1005.10
2018-12-07T09:13:56.840Z,1004.90
2018-12-07T09:14:56.841Z,1004.99
2018-12-07T09:15:56.844Z,1005.01
2018-12-07T09:16:56.801Z,1004.89
2018-12-07T09:17:56.780Z,1004.85
2018-12-07T09:18:56.803Z,1004.91
2018-12-07T09:19:56.753Z,1004.88
2018-12-07T09:20:56.748Z,1004.80
2018-12-07T09:21:56.757Z,1004.85
2018-12-07T09:22:56.725Z,1004.82
2018-12-07T09:23:56.769Z,1004.80
2018-12-07T09:24:56.710Z,1004.81
2018-12-07T09:25:56.693Z,1004.77
2018-12-07T09:26:56.710Z,1004.79
2018-12-07T09:27:56.669Z,1004.81
2018-12-07T09:28:56.718Z,1004.77
2018-12-07T09:29:56.705Z,1004.76
2018-12-07T09:30:56.647Z,1004.73
2018-12-07T09:31:56.623Z,1004.69
2018-12-07T09:32:56.609Z,1004.74
2018-12-07T09:33:56.628Z,1004.70
2018-12-07T09:34:56.596Z,1004.65
2018-12-07T09:35:56.616Z,1004.70
2018-12-07T09:37:57.696Z,1004.65
2018-12-07T09:38:56.599Z,1004.61
2018-12-07T09:39:56.536Z,1004.68
2018-12-07T09:40:56.562Z,1004.59
2018-12-07T09:41:56.510Z,1004.58
2018-12-07T09:42:56.499Z,1004.50
2018-12-07T09:43:56.491Z,1004.51
2018-12-07T09:44:56.537Z,1004.49
2018-12-07T09:45:56.471Z,1004.41
2018-12-07T09:46:56.480Z,1004.41
2018-12-07T09:47:56.449Z,1004.41
2018-12-07T09:48:56.440Z,1004.37
2018-12-07T09:49:56.428Z,1004.36
2018-12-07T09:50:56.438Z,1004.33
2018-12-07T09:51:56.418Z,1004.32
2018-12-07T09:52:56.388Z,1004.30
2018-12-07T09:53:56.381Z,1004.30
2018-12-07T09:54:56.364Z,1004.29
2018-12-07T09:55:56.385Z,1004.32
2018-12-07T09:56:56.352Z,1004.24
2018-12-07T09:57:56.379Z,1004.24
2018-12-07T09:58:56.317Z,1004.23
2018-12-07T09:59:56.323Z,1004.18
2018-12-07T10:00:56.397Z,1004.15
2018-12-07T10:01:56.331Z,1004.21
2018-12-07T10:02:56.277Z,1004.12
2018-12-07T10:03:56.328Z,1004.03
2018-12-07T10:04:56.256Z,1004.02
2018-12-07T10:05:56.261Z,1004.01
2018-12-07T10:06:56.262Z,1003.98
2018-12-07T10:07:56.220Z,1003.91
2018-12-07T10:08:56.212Z,1003.83
2018-12-07T10:09:56.202Z,1003.91
2018-12-07T10:10:56.187Z,1003.90
2018-12-07T10:11:56.270Z,1003.82
2018-12-07T10:12:56.199Z,1003.84
2018-12-07T10:13:56.162Z,1003.85
2018-12-07T10:14:56.149Z,1003.81
2018-12-07T10:15:56.146Z,1003.71
2018-12-07T10:16:56.149Z,1003.78
2018-12-07T10:17:56.150Z,1003.69
2018-12-07T10:18:56.142Z,1003.73
2018-12-07T10:19:56.091Z,1003.74
2018-12-07T10:20:56.079Z,1003.67
2018-12-07T10:21:56.073Z,1003.66
2018-12-07T10:22:56.079Z,1003.63
2018-12-07T10:23:56.054Z,1003.67
2018-12-07T10:24:56.056Z,1003.67
2018-12-07T10:25:56.038Z,1003.50
2018-12-07T10:26:56.011Z,1003.55
2018-12-07T10:27:56.039Z,1003.54
2018-12-07T10:28:55.991Z,1003.60
2018-12-07T10:29:55.993Z,1003.55
2018-12-07T10:30:55.970Z,1003.52
2018-12-07T10:31:55.973Z,1003.44
2018-12-07T10:32:55.976Z,1003.48
2018-12-07T10:33:55.936Z,1003.42
2018-12-07T10:34:55.948Z,1003.39
2018-12-07T10:35:55.915Z,1003.35
2018-12-07T10:36:55.902Z,1003.38
2018-12-07T10:37:55.920Z,1003.27
2018-12-07T10:38:55.909Z,1003.40
2018-12-07T10:39:55.872Z,1003.38
2018-12-07T10:40:55.859Z,1003.24
2018-12-07T10:41:55.852Z,1003.27
2018-12-07T10:42:55.837Z,1003.19
2018-12-07T10:43:55.871Z,1003.12
2018-12-07T10:44:55.820Z,1003.09
2018-12-07T10:45:55.822Z,1003.12
2018-12-07T10:46:55.803Z,1003.05
2018-12-07T10:47:55.785Z,1003.01
2018-12-07T10:48:55.803Z,1002.93
2018-12-07T10:49:55.792Z,1002.97
2018-12-07T10:50:55.753Z,1002.87
2018-12-07T10:51:55.784Z,1002.87
2018-12-07T10:52:55.735Z,1002.74
2018-12-07T10:53:55.748Z,1002.77
2018-12-07T10:54:55.707Z,1002.78
2018-12-07T10:55:55.700Z,1002.70
2018-12-07T10:56:55.694Z,1002.67
2018-12-07T10:57:55.734Z,1002.69
2018-12-07T10:58:55.687Z,1002.73
2018-12-07T10:59:55.676Z,1002.65
2018-12-07T11:00:55.638Z,1002.66
2018-12-07T11:01:55.631Z,1002.53
2018-12-07T11:02:55.620Z,1002.50
2018-12-07T11:03:55.643Z,1002.57
2018-12-07T11:04:55.592Z,1002.52
2018-12-07T11:05:55.597Z,1002.45
2018-12-07T11:06:55.572Z,1002.46
2018-12-07T11:07:55.599Z,1002.48
2018-12-07T11:08:55.586Z,1002.44
2018-12-07T11:09:55.539Z,1002.44
2018-12-07T11:10:55.527Z,1002.49
2018-12-07T11:11:55.540Z,1002.33
2018-12-07T11:12:55.513Z,1002.29
2018-12-07T11:13:55.519Z,1002.25
2018-12-07T11:14:55.519Z,1002.26
2018-12-07T11:15:55.472Z,1002.15
2018-12-07T11:16:55.462Z,1002.01
2018-12-07T11:17:55.468Z,1002.04
2018-12-07T11:18:55.441Z,1002.19
2018-12-07T11:19:55.434Z,1002.06
2018-12-07T11:20:55.453Z,1001.99
2018-12-07T11:21:55.410Z,1001.96
2018-12-07T11:22:55.399Z,1001.87
2018-12-07T11:23:55.384Z,1001.88
2018-12-07T11:24:55.409Z,1001.89
2018-12-07T11:25:55.394Z,1001.76
2018-12-07T11:26:55.352Z,1001.75
2018-12-07T11:27:55.344Z,1001.78
2018-12-07T11:28:55.337Z,1001.68
2018-12-07T11:29:55.316Z,1001.72
2018-12-07T11:30:55.350Z,1001.59
2018-12-07T11:31:55.300Z,1001.57
2018-12-07T11:32:55.330Z,1001.53
2018-12-07T11:33:55.275Z,1001.49
2018-12-07T11:34:55.263Z,1001.57
2018-12-07T11:35:55.292Z,1001.46
2018-12-07T11:36:55.273Z,1001.49
2018-12-07T11:37:55.253Z,1001.44
2018-12-07T11:38:55.244Z,1001.40
2018-12-07T11:39:55.226Z,1001.42
2018-12-07T11:40:55.202Z,1001.43
2018-12-07T11:41:55.269Z,1001.43
2018-12-07T11:42:55.175Z,1001.38
2018-12-07T11:43:55.178Z,1001.35
2018-12-07T11:44:55.178Z,1001.30
2018-12-07T11:45:55.189Z,1001.35
2018-12-07T11:46:55.201Z,1001.17
2018-12-07T11:47:55.125Z,1001.14
2018-12-07T11:48:55.112Z,1001.18
2018-12-07T11:49:55.103Z,1001.14
2018-12-07T11:50:55.101Z,1001.07
2018-12-07T11:51:55.102Z,1001.15
2018-12-07T11:52:55.079Z,1001.00
2018-12-07T11:53:55.076Z,1001.01
2018-12-07T11:54:55.055Z,1000.99
2018-12-07T11:55:55.054Z,1000.94
2018-12-07T11:56:55.092Z,1000.96
2018-12-07T11:57:55.013Z,1000.95
2018-12-07T11:58:55.001Z,1000.91
2018-12-07T11:59:54.992Z,1000.81
2018-12-07T12:00:54.986Z,1000.78
2018-12-07T12:01:55.000Z,1000.73
2018-12-07T12:02:54.966Z,1000.72
2018-12-07T12:03:54.949Z,1000.67
2018-12-07T12:04:54.939Z,1000.74
2018-12-07T12:05:54.925Z,1000.68
2018-12-07T12:06:54.936Z,1000.60
2018-12-07T12:07:54.911Z,1000.55
2018-12-07T12:08:54.918Z,1000.49